首页
METAR-TAF:

METAR-TAF

机场 :

奥利弗·坦博国际机场

约翰内斯堡, 南非共和國

纬度: 26-08S, 经度: 028-14E, 海拔: 1694米

当前天气观测

该预报发布于50分钟前的01:00 UTC
风速5节,风向南转西南
温度 5°C
湿度 65%
气压 1030 hPa
能见度10公里或以上
1500米以下无云,无积雨云

METAR: FAOR 130100Z 20005KT CAVOK 05/M01 Q1030 NOSIG

时间: 03:50 (01:50 UTC)

预报

该预报发布于3小时和50分钟前的22:00 UTC
预报有效从13日的 00点(UTC)到 14日的 06点(UTC)
风速3节,风向多变
能见度10公里或以上
1500米以下无云,无积雨云
成为
从 13日的 04点(UTC)到 13日的 06点(UTC)
风速10节,风向
成为
从 13日的 14点(UTC)到 13日的 16点(UTC)
风速3节,风向多变

TAF: FAOR 122200Z 1300/1406 VRB03KT CAVOK TX19/1312Z TN06/1304Z BECMG 1304/1306 18010KT BECMG 1314/1316 VRB03KT

超过4000个机场的气象观测和天气预报(METAR&TAF报告)。

可查询的气象台以黄色和红色小点在地图上表示。

将鼠标移到小点上方,可查看气象台名称。

然后点击查看天气观测和预报。

如需切换地图:点击带黑十字的绿色按钮放大地图;点击带横线的绿色按钮缩小地图;或者点击绿色箭头查看邻近地区的地图。


METAR-TAF: